Time;durP1;ratioP1;P1;durP2;ratioP2;P2;SDS_P1;SDS_P2;PMS_P1;PMS_P2;Temp;Humidity;BMP_temperature;BMP_pressure;BME280_temperature;BME280_humidity;BME280_pressure;Samples;Min_cycle;Max_cycle;Signal;HPM_P1;HPM_P2
2021/04/17 00:00:37;;;;;;;;;;;;;;;6.64;75.42;101740.16;1823169;78;20238;-73
2021/04/17 00:03:04;;;;;;;;;;;;;;;6.60;75.44;101740.73;1823324;78;20495;-74
2021/04/17 00:05:32;;;;;;;;;;;;;;;6.56;75.52;101736.56;1823274;78;22678;-74
2021/04/17 00:08:05;;;;;;;;;;;;;;;6.55;75.56;101732.73;1823209;78;20150;-75
2021/04/17 00:10:32;;;;;;;;;;;;;;;6.51;75.61;101735.03;1823362;78;20212;-74
2021/04/17 00:13:00;;;;;;;;;;;;;;;6.48;75.14;101737.71;1823302;78;21019;-73
2021/04/17 00:15:27;;;;;;;;;;;;;;;6.50;74.83;101739.34;1823209;78;20125;-76
2021/04/17 00:17:55;;;;;;;;;;;;;;;6.51;74.51;101742.77;1823340;78;22264;-73
2021/04/17 00:20:23;;;;;;;;;;;;;;;6.48;74.16;101739.00;1823329;78;20883;-75
2021/04/17 00:22:50;;;;;;;;;;;;;;;6.48;73.68;101732.08;1823298;78;20208;-75
2021/04/17 00:25:18;;;;;;;;;;;;;;;6.51;73.15;101733.75;1823090;78;20298;-74
2021/04/17 00:27:46;;;;;;;;;;;;;;;6.50;72.80;101735.47;1823255;78;20220;-75
2021/04/17 00:30:14;;;;;;;;;;;;;;;6.48;72.70;101731.27;1823195;78;21596;-74
2021/04/17 00:32:42;;;;;;;;;;;;;;;6.47;72.37;101734.28;1823162;78;20139;-74
2021/04/17 00:35:11;;;;;;;;;;;;;;;6.47;71.97;101734.28;1823194;78;20247;-73
2021/04/17 00:37:39;;;;;;;;;;;;;;;6.50;71.42;101724.31;1823336;78;20509;-73
2021/04/17 00:40:09;;;;;;;;;;;;;;;6.45;71.21;101727.02;1823361;78;20494;-73
2021/04/17 00:42:36;;;;;;;;;;;;;;;6.41;71.28;101730.62;1823255;78;21206;-73
2021/04/17 00:45:06;;;;;;;;;;;;;;;6.33;71.16;101726.98;1823225;78;20129;-76
2021/04/17 00:47:34;;;;;;;;;;;;;;;6.32;70.87;101730.88;1823333;78;20129;-73
2021/04/17 00:50:03;;;;;;;;;;;;;;;6.27;70.64;101726.33;1823396;78;20128;-77
2021/04/17 00:52:30;;;;;;;;;;;;;;;6.20;70.43;101733.84;1823348;78;20494;-74
2021/04/17 00:54:58;;;;;;;;;;;;;;;6.17;70.28;101729.64;1825675;77;22227;-75
2021/04/17 00:57:27;;;;;;;;;;;;;;;6.14;70.14;101729.73;1835699;78;20211;-75
2021/04/17 00:59:54;;;;;;;;;;;;;;;6.10;70.13;101738.44;1835802;78;20144;-75
2021/04/17 01:02:26;;;;;;;;;;;;;;;6.05;69.36;101739.03;1836010;78;20108;-76
2021/04/17 01:04:55;;;;;;;;;;;;;;;6.03;69.04;101742.08;1835879;78;20152;-75
2021/04/17 01:07:26;;;;;;;;;;;;;;;6.02;68.95;101736.98;1809114;78;22115;-75
2021/04/17 01:10:22;;;;;;;;;;;;;;;6.07;68.97;101742.39;1814084;77;20207;-74
2021/04/17 01:12:51;;;;;;;;;;;;;;;6.06;69.03;101744.56;1787652;80;20131;-74
2021/04/17 01:15:20;;;;;;;;;;;;;;;6.02;69.22;101744.72;1786827;80;21204;-76
2021/04/17 01:17:52;;;;;;;;;;;;;;;5.94;69.58;101743.65;1786698;80;20152;-74
2021/04/17 01:20:31;;;;;;;;;;;;;;;5.94;69.71;101746.23;1786757;80;20131;-77
2021/04/17 01:23:22;;;;;;;;;;;;;;;5.92;69.84;101743.30;1786688;80;20135;-74
2021/04/17 01:26:03;;;;;;;;;;;;;;;5.90;69.96;101738.66;1786731;80;20151;-75
2021/04/17 01:28:33;;;;;;;;;;;;;;;5.87;70.15;101740.03;1786493;80;22171;-74
2021/04/17 01:31:03;;;;;;;;;;;;;;;5.85;70.30;101737.45;1786667;80;20165;-75
2021/04/17 01:33:33;;;;;;;;;;;;;;;5.79;70.51;101732.05;1786705;80;20132;-74
2021/04/17 01:36:02;;;;;;;;;;;;;;;5.74;70.72;101733.89;1786710;80;20112;-74
2021/04/17 01:38:42;;;;;;;;;;;;;;;5.71;71.04;101732.69;1786700;80;20210;-74
2021/04/17 01:41:14;;;;;;;;;;;;;;;5.72;71.29;101731.81;1786511;80;22301;-73
2021/04/17 01:43:42;;;;;;;;;;;;;;;5.70;71.76;101732.75;1786629;80;20214;-75
2021/04/17 01:46:19;;;;;;;;;;;;;;;5.70;71.95;101732.75;1786677;80;20155;-75
2021/04/17 01:48:50;;;;;;;;;;;;;;;5.65;72.29;101730.30;1786639;80;20218;-75
2021/04/17 01:51:18;;;;;;;;;;;;;;;5.63;72.80;101724.36;1786674;80;20147;-74
2021/04/17 01:53:46;;;;;;;;;;;;;;;5.63;73.05;101722.22;1786612;80;21626;-74
2021/04/17 01:56:13;;;;;;;;;;;;;;;5.61;73.43;101715.00;1786539;80;20178;-75
2021/04/17 01:58:41;;;;;;;;;;;;;;;5.58;73.68;101717.66;1786663;80;20116;-74
2021/04/17 02:01:10;;;;;;;;;;;;;;;5.55;73.92;101715.99;1786663;80;20218;-75
2021/04/17 02:03:38;;;;;;;;;;;;;;;5.55;74.33;101721.61;1786737;80;20146;-75
2021/04/17 02:06:06;;;;;;;;;;;;;;;5.54;74.60;101719.48;1786547;80;21192;-75
2021/04/17 02:08:36;;;;;;;;;;;;;;;5.52;74.83;101719.13;1786461;78;20886;-75
2021/04/17 02:11:06;;;;;;;;;;;;;;;5.51;74.95;101722.58;1786580;80;20131;-75
2021/04/17 02:13:38;;;;;;;;;;;;;;;5.43;75.13;101718.92;1786726;80;20285;-77
2021/04/17 02:16:13;;;;;;;;;;;;;;;5.39;75.58;101719.06;1787728;80;20176;-74
2021/04/17 02:18:58;;;;;;;;;;;;;;;5.36;75.85;101720.44;1787077;80;21149;-75
2021/04/17 02:21:36;;;;;;;;;;;;;;;5.35;76.57;101714.45;1786107;80;20112;-74
2021/04/17 02:24:07;;;;;;;;;;;;;;;5.39;76.84;101716.49;1786058;80;20211;-73
2021/04/17 02:26:37;;;;;;;;;;;;;;;5.40;77.20;101714.30;1756490;80;20135;-74
2021/04/17 02:29:07;;;;;;;;;;;;;;;5.45;77.86;101713.30;1785955;80;20140;-75
2021/04/17 02:31:35;;;;;;;;;;;;;;;5.51;78.32;101719.56;1785965;80;21156;-76
2021/04/17 02:34:03;;;;;;;;;;;;;;;5.55;78.78;101715.17;1785922;80;20146;-74
2021/04/17 02:36:32;;;;;;;;;;;;;;;5.61;79.28;101720.15;1785969;80;20147;-73
2021/04/17 02:39:00;;;;;;;;;;;;;;;5.67;79.16;101722.55;1786129;80;20533;-74
2021/04/17 02:41:28;;;;;;;;;;;;;;;5.66;79.27;101721.70;1786126;80;20143;-77
2021/04/17 02:43:56;;;;;;;;;;;;;;;5.63;79.25;101723.08;1785987;80;21635;-75
2021/04/17 02:46:23;;;;;;;;;;;;;;;5.57;79.39;101727.11;1785948;80;20143;-77
2021/04/17 02:48:52;;;;;;;;;;;;;;;5.54;79.59;101725.91;1785984;80;20246;-75
2021/04/17 02:51:20;;;;;;;;;;;;;;;5.49;79.72;101723.89;1785987;80;20127;-75
2021/04/17 02:53:51;;;;;;;;;;;;;;;5.44;79.91;101730.91;1786054;80;20210;-75
2021/04/17 02:56:20;;;;;;;;;;;;;;;5.37;80.07;101725.53;1786026;80;21207;-75
2021/04/17 02:58:48;;;;;;;;;;;;;;;5.29;80.20;101721.05;1785896;80;20150;-75
2021/04/17 03:01:15;;;;;;;;;;;;;;;5.20;80.50;101716.16;1785986;80;20131;-75
2021/04/17 03:03:45;;;;;;;;;;;;;;;5.11;80.90;101724.95;1785986;80;20297;-75
2021/04/17 03:06:12;;;;;;;;;;;;;;;5.02;81.25;101721.77;1786103;80;20151;-75
2021/04/17 03:08:42;;;;;;;;;;;;;;;4.93;81.58;101727.16;1789140;79;21202;-75
2021/04/17 03:11:10;;;;;;;;;;;;;;;4.85;82.02;101724.77;1802356;79;20199;-76
2021/04/17 03:13:39;;;;;;;;;;;;;;;4.79;82.44;101724.49;1801535;79;20174;-75
2021/04/17 03:16:07;;;;;;;;;;;;;;;4.79;82.78;101722.36;1800550;79;20150;-75
2021/04/17 03:18:34;;;;;;;;;;;;;;;4.79;83.02;101726.22;1800547;79;20273;-75
2021/04/17 03:21:05;;;;;;;;;;;;;;;4.79;83.19;101734.78;1800504;79;21208;-75
2021/04/17 03:23:33;;;;;;;;;;;;;;;4.81;83.32;101724.47;1800403;79;20126;-76
2021/04/17 03:26:00;;;;;;;;;;;;;;;4.84;83.40;101729.53;1800449;79;20127;-76
2021/04/17 03:28:28;;;;;;;;;;;;;;;4.88;83.48;101729.87;1800558;79;20170;-75
2021/04/17 03:30:57;;;;;;;;;;;;;;;4.93;83.50;101736.16;1800579;79;20131;-76
2021/04/17 03:33:25;;;;;;;;;;;;;;;4.93;83.48;101731.87;1800514;79;21191;-75
2021/04/17 03:35:53;;;;;;;;;;;;;;;4.96;83.53;101739.50;1800498;79;20478;-76
2021/04/17 03:38:20;;;;;;;;;;;;;;;4.97;83.38;101739.91;1800596;79;20110;-76
2021/04/17 03:40:48;;;;;;;;;;;;;;;4.96;83.23;101745.08;1800451;79;20150;-76
2021/04/17 03:43:16;;;;;;;;;;;;;;;4.96;83.04;101743.80;1800516;79;20142;-76
2021/04/17 03:45:44;;;;;;;;;;;;;;;4.95;82.92;101746.80;1800514;79;21591;-75
2021/04/17 03:48:12;;;;;;;;;;;;;;;4.94;82.75;101748.15;1800464;79;20917;-75
2021/04/17 03:50:39;;;;;;;;;;;;;;;4.96;82.67;101751.08;1800467;79;20151;-75
2021/04/17 03:53:08;;;;;;;;;;;;;;;5.00;82.45;101750.12;1800450;79;20273;-75
2021/04/17 03:55:37;;;;;;;;;;;;;;;5.06;82.20;101747.83;1800565;79;20488;-75
2021/04/17 03:58:05;;;;;;;;;;;;;;;5.12;81.86;101750.23;1800507;79;22220;-76
2021/04/17 04:00:33;;;;;;;;;;;;;;;5.19;81.59;101748.77;1800632;79;20218;-75
2021/04/17 04:03:01;;;;;;;;;;;;;;;5.25;81.48;101752.45;1800541;79;20154;-75
2021/04/17 04:05:30;;;;;;;;;;;;;;;5.33;80.90;101753.52;1800571;79;20556;-75
2021/04/17 04:07:59;;;;;;;;;;;;;;;5.39;80.39;101755.95;1800509;79;20508;-75
2021/04/17 04:10:27;;;;;;;;;;;;;;;5.44;79.89;101754.52;1789910;79;21195;-75
2021/04/17 04:12:55;;;;;;;;;;;;;;;5.48;79.05;101756.13;1785927;80;20135;-74
2021/04/17 04:15:23;;;;;;;;;;;;;;;5.54;78.33;101754.67;1785987;80;20496;-76
2021/04/17 04:17:50;;;;;;;;;;;;;;;5.58;77.84;101755.84;1785982;80;20111;-75
2021/04/17 04:20:18;;;;;;;;;;;;;;;5.62;77.37;101753.56;1786075;80;20151;-75
2021/04/17 04:22:46;;;;;;;;;;;;;;;5.65;77.08;101757.77;1786020;80;21372;-75
2021/04/17 04:25:15;;;;;;;;;;;;;;;5.69;77.03;101752.51;1785950;80;20139;-76
2021/04/17 04:27:43;;;;;;;;;;;;;;;5.78;76.73;101751.39;1785920;80;20135;-76
2021/04/17 04:30:11;;;;;;;;;;;;;;;5.87;76.46;101754.20;1785984;80;20227;-76
2021/04/17 04:32:39;;;;;;;;;;;;;;;5.93;76.27;101753.58;1785951;80;20127;-76
2021/04/17 04:35:08;;;;;;;;;;;;;;;5.99;75.91;101757.26;1785927;80;21650;-76
2021/04/17 04:37:36;;;;;;;;;;;;;;;6.03;75.67;101758.02;1786017;80;20210;-77
2021/04/17 04:40:05;;;;;;;;;;;;;;;6.06;75.58;101765.65;1785970;80;20132;-75
2021/04/17 04:42:33;;;;;;;;;;;;;;;6.12;75.52;101763.73;1786120;80;20112;-76
2021/04/17 04:45:01;;;;;;;;;;;;;;;6.20;75.37;101758.33;1785956;80;20111;-75
2021/04/17 04:47:29;;;;;;;;;;;;;;;6.27;75.16;101754.68;1786205;80;21200;-77
2021/04/17 04:49:57;;;;;;;;;;;;;;;6.31;74.95;101761.44;1788133;80;20143;-77
2021/04/17 04:52:24;;;;;;;;;;;;;;;6.38;74.72;101766.34;1787788;80;20206;-76
2021/04/17 04:54:53;;;;;;;;;;;;;;;6.44;74.41;101764.48;1786017;80;20489;-77
2021/04/17 04:57:21;;;;;;;;;;;;;;;6.52;74.16;101768.93;1786152;80;20219;-77
2021/04/17 04:59:49;;;;;;;;;;;;;;;6.61;73.50;101763.03;1785910;80;21821;-77
2021/04/17 05:02:16;;;;;;;;;;;;;;;6.68;73.07;101768.84;1786023;80;20127;-76
2021/04/17 05:04:45;;;;;;;;;;;;;;;6.76;72.70;101780.62;1786964;80;20163;-76
2021/04/17 05:07:14;;;;;;;;;;;;;;;6.83;72.38;101775.63;1786539;80;20135;-75
2021/04/17 05:09:42;;;;;;;;;;;;;;;6.91;72.33;101771.52;1789111;79;20175;-75
2021/04/17 05:12:10;;;;;;;;;;;;;;;7.00;72.51;101768.63;1787130;80;21828;-76
2021/04/17 05:14:39;;;;;;;;;;;;;;;7.07;72.73;101776.56;1787251;80;20140;-75
2021/04/17 05:17:07;;;;;;;;;;;;;;;7.13;72.32;101785.39;1786871;80;20147;-74
2021/04/17 05:19:39;;;;;;;;;;;;;;;;;;1786964;80;20488;-75
2021/04/17 05:22:05;;;;;;;;;;;;;;;7.27;72.48;101775.89;1786001;80;20155;-76
2021/04/17 05:24:33;;;;;;;;;;;;;;;7.34;72.70;101773.47;1785970;80;21186;-75
2021/04/17 05:27:01;;;;;;;;;;;;;;;7.41;72.92;101777.53;1785877;80;20877;-76
2021/04/17 05:29:29;;;;;;;;;;;;;;;7.46;73.00;101766.61;1786746;80;20103;-76
2021/04/17 05:31:56;;;;;;;;;;;;;;;7.51;72.45;101772.88;1785835;80;20151;-77
2021/04/17 05:34:26;;;;;;;;;;;;;;;7.55;72.42;101773.17;1785909;80;20243;-77
2021/04/17 05:36:54;;;;;;;;;;;;;;;7.61;72.16;101774.24;1786055;80;21212;-75
2021/04/17 05:39:21;;;;;;;;;;;;;;;7.66;72.17;101783.98;1786719;80;20115;-76
2021/04/17 05:41:49;;;;;;;;;;;;;;;7.75;70.53;101781.91;1786881;80;20166;-76
2021/04/17 05:44:16;;;;;;;;;;;;;;;7.88;69.65;101784.41;1786012;80;20973;-76
2021/04/17 05:46:44;;;;;;;;;;;;;;;8.02;70.02;101785.64;1786020;80;20533;-77
2021/04/17 05:49:12;;;;;;;;;;;;;;;8.11;69.82;101787.43;1785931;80;21640;-74
2021/04/17 05:51:42;;;;;;;;;;;;;;;8.20;69.39;101788.36;1785786;80;20148;-76
2021/04/17 05:54:10;;;;;;;;;;;;;;;8.31;69.24;101787.55;1786027;80;20568;-77
2021/04/17 05:56:38;;;;;;;;;;;;;;;8.42;67.98;101787.95;1785920;80;20223;-73
2021/04/17 05:59:08;;;;;;;;;;;;;;;8.53;66.19;101782.37;1786136;80;20516;-77
2021/04/17 06:01:36;;;;;;;;;;;;;;;8.62;65.22;101786.33;1786068;80;22381;-75
2021/04/17 06:04:05;;;;;;;;;;;;;;;8.68;64.71;101782.23;1785990;80;20190;-76
2021/04/17 06:06:32;;;;;;;;;;;;;;;8.76;64.76;101775.83;1786063;80;20233;-77
2021/04/17 06:09:03;;;;;;;;;;;;;;;8.82;64.54;101774.73;1786061;80;20641;-77
2021/04/17 06:11:31;;;;;;;;;;;;;;;8.85;63.80;101771.56;1786017;79;20162;-77
2021/04/17 06:13:59;;;;;;;;;;;;;;;8.89;63.34;101777.46;1786046;80;21385;-77
2021/04/17 06:16:27;;;;;;;;;;;;;;;8.96;62.55;101773.72;1785903;80;20131;-77
2021/04/17 06:18:56;;;;;;;;;;;;;;;9.02;62.27;101783.38;1784099;80;20242;-77
2021/04/17 06:21:24;;;;;;;;;;;;;;;9.11;62.02;101782.58;1785967;80;20183;-73
2021/04/17 06:23:52;;;;;;;;;;;;;;;9.19;62.25;101781.34;1786101;80;20481;-76
2021/04/17 06:26:21;;;;;;;;;;;;;;;9.30;62.33;101777.86;1786104;80;21861;-75
2021/04/17 06:28:50;;;;;;;;;;;;;;;9.40;62.36;101776.56;1786454;80;20155;-76
2021/04/17 06:31:18;;;;;;;;;;;;;;;9.51;62.19;101775.63;1787518;80;20135;-77
2021/04/17 06:33:46;;;;;;;;;;;;;;;9.59;62.26;101777.89;1786583;80;20160;-77
2021/04/17 06:36:15;;;;;;;;;;;;;;;9.65;62.12;101781.50;1786031;80;20247;-77
2021/04/17 06:38:44;;;;;;;;;;;;;;;9.70;61.19;101783.42;1786139;80;21132;-77
2021/04/17 06:41:12;;;;;;;;;;;;;;;9.78;60.68;101790.87;1785894;80;20127;-74
2021/04/17 06:43:42;;;;;;;;;;;;;;;9.89;60.81;101792.53;1785997;80;20183;-76
2021/04/17 06:46:12;;;;;;;;;;;;;;;10.05;60.74;101796.93;1786056;80;20254;-76
2021/04/17 06:48:40;;;;;;;;;;;;;;;10.23;60.39;101795.75;1786218;80;20132;-77
2021/04/17 06:51:20;;;;;;;;;;;;;;;10.33;58.73;101801.73;1785989;80;21159;-80
2021/04/17 06:53:47;;;;;;;;;;;;;;;10.33;58.22;101805.63;1786020;80;20131;-74
2021/04/17 06:56:16;;;;;;;;;;;;;;;10.34;57.09;101807.77;1785993;80;20112;-77
2021/04/17 06:58:43;;;;;;;;;;;;;;;10.36;57.33;101803.34;1786191;80;20491;-74
2021/04/17 07:01:13;;;;;;;;;;;;;;;10.45;57.04;101808.09;1786105;80;20227;-75
2021/04/17 07:03:41;;;;;;;;;;;;;;;10.49;56.66;101807.05;1786058;80;21648;-75
2021/04/17 07:06:08;;;;;;;;;;;;;;;10.55;56.43;101803.70;1785880;80;20195;-75
2021/04/17 07:08:39;;;;;;;;;;;;;;;10.61;55.97;101807.75;1785866;80;20151;-74
2021/04/17 07:11:07;;;;;;;;;;;;;;;10.63;55.66;101811.11;1785819;80;20224;-75
2021/04/17 07:13:36;;;;;;;;;;;;;;;10.61;54.54;101808.59;1786021;80;20163;-76
2021/04/17 07:16:09;;;;;;;;;;;;;;;10.57;53.41;101803.61;1786025;80;21195;-77
2021/04/17 07:18:37;;;;;;;;;;;;;;;10.58;52.04;101818.28;1785918;80;20238;-75
2021/04/17 07:21:17;;;;;;;;;;;;;;;10.63;51.79;101810.66;1786104;80;20147;-75
2021/04/17 07:23:46;;;;;;;;;;;;;;;10.72;51.71;101815.85;1786978;80;20163;-77
2021/04/17 07:26:16;;;;;;;;;;;;;;;10.83;52.47;101814.05;1786725;80;20135;-77
2021/04/17 07:29:08;;;;;;;;;;;;;;;10.94;52.49;101815.22;1786139;80;22570;-77
2021/04/17 07:31:36;;;;;;;;;;;;;;;11.09;52.18;101807.11;1785915;80;20135;-75
2021/04/17 07:34:16;;;;;;;;;;;;;;;11.24;52.23;101815.43;1785954;80;20198;-76
2021/04/17 07:36:55;;;;;;;;;;;;;;;11.34;51.68;101812.75;1786005;80;20541;-77
2021/04/17 07:39:31;;;;;;;;;;;;;;;11.41;51.57;101808.93;1786073;80;20218;-75
2021/04/17 07:42:01;;;;;;;;;;;;;;;11.49;51.40;101813.27;1786099;80;20627;-77
2021/04/17 07:44:37;;;;;;;;;;;;;;;11.53;50.99;101811.34;1786212;80;20238;-77
2021/04/17 07:47:05;;;;;;;;;;;;;;;11.55;48.28;101804.33;1785889;80;20186;-78
2021/04/17 07:49:33;;;;;;;;;;;;;;;11.47;48.77;101802.56;1786031;80;20588;-78
2021/04/17 07:52:13;;;;;;;;;;;;;;;11.42;49.73;101800.19;1786042;80;20234;-78
2021/04/17 07:55:04;;;;;;;;;;;;;;;11.41;49.44;101804.19;1785984;80;21711;-75
2021/04/17 07:57:34;;;;;;;;;;;;;;;11.40;49.35;101800.73;1785836;80;20139;-75
2021/04/17 08:00:05;;;;;;;;;;;;;;;11.50;49.70;101796.75;1785617;80;20214;-76
2021/04/17 08:02:34;;;;;;;;;;;;;;;11.64;49.19;101796.05;1785936;80;20553;-74
2021/04/17 08:05:03;;;;;;;;;;;;;;;11.73;47.96;101786.95;1786095;80;20218;-76
2021/04/17 08:07:32;;;;;;;;;;;;;;;11.74;47.61;101790.78;1786120;80;21357;-75
2021/04/17 08:10:04;;;;;;;;;;;;;;;11.73;47.79;101792.98;1785900;80;20131;-76
2021/04/17 08:12:36;;;;;;;;;;;;;;;11.74;47.90;101786.88;1785835;80;20302;-78
2021/04/17 08:15:05;;;;;;;;;;;;;;;11.79;47.67;101780.95;1785969;80;20112;-76
2021/04/17 08:17:33;;;;;;;;;;;;;;;11.84;47.87;101781.54;1785944;80;20191;-76
2021/04/17 08:20:01;;;;;;;;;;;;;;;11.94;47.15;101785.33;1786023;80;21204;-77
2021/04/17 08:22:29;;;;;;;;;;;;;;;12.00;46.60;101778.95;1787271;80;20147;-73
2021/04/17 08:24:57;;;;;;;;;;;;;;;12.09;46.03;101775.87;1786789;80;20501;-74
2021/04/17 08:27:32;;;;;;;;;;;;;;;12.08;45.92;101776.79;1786325;80;20294;-75
2021/04/17 08:30:06;;;;;;;;;;;;;;;12.04;46.41;101777.41;1785853;80;20234;-76
2021/04/17 08:32:36;;;;;;;;;;;;;;;12.09;46.67;101775.39;1786110;80;22104;-76
2021/04/17 08:35:17;;;;;;;;;;;;;;;12.24;46.54;101773.73;1785994;80;20226;-77
2021/04/17 08:37:54;;;;;;;;;;;;;;;12.35;46.32;101774.45;1785954;80;20636;-75
2021/04/17 08:40:41;;;;;;;;;;;;;;;12.40;46.35;101770.66;1785873;80;20230;-76
2021/04/17 08:43:19;;;;;;;;;;;;;;;12.48;46.06;101769.75;1786053;80;20135;-79
2021/04/17 08:46:07;;;;;;;;;;;;;;;12.62;46.22;101763.77;1786045;80;21197;-76
2021/04/17 08:48:46;;;;;;;;;;;;;;;12.77;45.44;101762.88;1785749;80;20127;-75
2021/04/17 08:51:26;;;;;;;;;;;;;;;12.84;45.10;101752.48;1785778;80;20151;-75
2021/04/17 08:54:04;;;;;;;;;;;;;;;13.01;45.37;101752.36;1785901;80;20285;-75
2021/04/17 08:56:53;;;;;;;;;;;;;;;13.24;44.82;101748.42;1786012;80;20119;-77
2021/04/17 08:59:27;;;;;;;;;;;;;;;13.43;44.57;101743.77;1785940;80;21197;-78
2021/04/17 09:01:58;;;;;;;;;;;;;;;13.55;44.24;101740.88;1785768;80;20520;-77
2021/04/17 09:04:27;;;;;;;;;;;;;;;13.73;43.53;101741.87;1785915;80;20155;-77
2021/04/17 09:06:56;;;;;;;;;;;;;;;13.87;42.73;101738.88;1785945;80;20262;-77
2021/04/17 09:09:26;;;;;;;;;;;;;;;14.00;43.10;101734.11;1786037;80;20484;-78
2021/04/17 09:12:06;;;;;;;;;;;;;;;14.14;42.59;101737.97;1785673;78;21151;-78
2021/04/17 09:14:37;;;;;;;;;;;;;;;14.22;41.83;101733.11;1785881;80;20155;-77
2021/04/17 09:17:07;;;;;;;;;;;;;;;14.43;42.12;101729.59;1785897;80;20215;-75
2021/04/17 09:19:49;;;;;;;;;;;;;;;14.68;40.99;101727.05;1786329;80;20140;-78
2021/04/17 09:22:31;;;;;;;;;;;;;;;14.82;40.25;101723.06;1786046;80;20151;-77
2021/04/17 09:25:08;;;;;;;;;;;;;;;15.06;39.78;101717.94;1785854;80;20513;-76
2021/04/17 09:27:43;;;;;;;;;;;;;;;15.21;39.18;101716.08;1785879;80;20131;-75
2021/04/17 09:30:13;;;;;;;;;;;;;;;15.11;37.56;101704.11;1786174;80;20235;-77
2021/04/17 09:32:46;;;;;;;;;;;;;;;15.01;37.89;101704.36;1786742;80;20136;-78
2021/04/17 09:35:17;;;;;;;;;;;;;;;15.15;37.42;101696.42;1786107;80;20218;-76
2021/04/17 09:37:46;;;;;;;;;;;;;;;15.15;38.59;101692.50;1756678;80;22122;-78
2021/04/17 09:40:14;;;;;;;;;;;;;;;15.12;39.13;101694.02;1786197;80;20155;-77
2021/04/17 09:42:42;;;;;;;;;;;;;;;15.29;38.31;101688.91;1786293;80;20151;-77
2021/04/17 09:45:11;;;;;;;;;;;;;;;15.42;37.53;101687.13;1786678;80;20293;-79
2021/04/17 09:47:56;;;;;;;;;;;;;;;15.57;37.42;101682.14;1787639;80;20201;-77
2021/04/17 09:50:25;;;;;;;;;;;;;;;15.76;36.05;101684.31;1787334;80;21196;-76
2021/04/17 09:52:53;;;;;;;;;;;;;;;16.09;35.05;101681.87;1786773;80;20217;-77
2021/04/17 09:55:20;;;;;;;;;;;;;;;16.50;33.12;101669.64;1786714;80;20211;-78
2021/04/17 09:57:49;;;;;;;;;;;;;;;16.98;31.85;101667.74;1787860;80;20139;-75
2021/04/17 10:00:25;;;;;;;;;;;;;;;17.18;29.72;101669.67;1786930;80;20501;-76
2021/04/17 10:02:54;;;;;;;;;;;;;;;17.51;30.51;101671.45;1786483;80;21360;-75
2021/04/17 10:05:33;;;;;;;;;;;;;;;18.21;30.31;101669.74;1786132;80;20552;-77
2021/04/17 10:08:01;;;;;;;;;;;;;;;18.54;28.42;101667.48;1786121;80;20517;-75
2021/04/17 10:10:36;;;;;;;;;;;;;;;18.39;29.91;101667.74;1786040;80;20132;-76
2021/04/17 10:13:04;;;;;;;;;;;;;;;18.67;28.88;101668.09;1786052;80;20214;-76
2021/04/17 10:15:34;;;;;;;;;;;;;;;18.67;28.74;101665.45;1785991;80;21184;-76
2021/04/17 10:18:04;;;;;;;;;;;;;;;18.85;29.04;101661.30;1786081;80;20192;-75
2021/04/17 10:20:34;;;;;;;;;;;;;;;19.08;29.04;101658.02;1786169;80;20484;-76
2021/04/17 10:23:02;;;;;;;;;;;;;;;18.93;28.82;101658.36;1786035;80;20135;-76
2021/04/17 10:25:39;;;;;;;;;;;;;;;18.91;28.95;101655.03;1785998;80;20163;-78
2021/04/17 10:28:20;;;;;;;;;;;;;;;18.81;30.34;101649.36;1785935;80;21369;-79
2021/04/17 10:30:58;;;;;;;;;;;;;;;18.84;29.17;101648.62;1786048;80;20135;-74
2021/04/17 10:33:26;;;;;;;;;;;;;;;18.75;28.35;101648.09;1786004;80;20206;-77
2021/04/17 10:35:55;;;;;;;;;;;;;;;18.86;27.61;101648.47;1786031;80;20147;-76
2021/04/17 10:38:25;;;;;;;;;;;;;;;19.19;27.05;101646.07;1786126;80;20135;-77
2021/04/17 10:40:55;;;;;;;;;;;;;;;19.34;26.64;101648.68;1785992;80;21254;-75
2021/04/17 10:43:22;;;;;;;;;;;;;;;19.56;26.34;101649.81;1785915;80;20235;-77
2021/04/17 10:45:56;;;;;;;;;;;;;;;19.44;26.34;101645.16;1786117;80;20223;-77
2021/04/17 10:48:24;;;;;;;;;;;;;;;19.39;26.84;101643.39;1785985;80;20143;-76
2021/04/17 10:51:03;;;;;;;;;;;;;;;19.16;26.54;101643.71;1786044;80;20248;-83
2021/04/17 10:53:40;;;;;;;;;;;;;;;18.84;25.12;101642.52;1786049;80;22367;-77
2021/04/17 10:56:15;;;;;;;;;;;;;;;18.09;26.33;101646.63;1785882;80;20214;-77
2021/04/17 10:58:43;;;;;;;;;;;;;;;18.00;27.46;101643.92;1786207;80;20111;-78
2021/04/17 11:01:16;;;;;;;;;;;;;;;17.89;27.75;101640.37;1786111;80;20223;-76
2021/04/17 11:03:49;;;;;;;;;;;;;;;17.75;27.69;101642.42;1786118;80;20151;-77
2021/04/17 11:06:19;;;;;;;;;;;;;;;17.73;28.10;101642.56;1786025;80;22206;-77
2021/04/17 11:08:48;;;;;;;;;;;;;;;17.89;28.56;101638.22;1786075;80;20507;-76
2021/04/17 11:11:21;;;;;;;;;;;;;;;18.11;28.74;101640.77;1785965;80;20376;-78
2021/04/17 11:14:03;;;;;;;;;;;;;;;18.21;28.74;101630.33;1794689;80;20508;-77
2021/04/17 11:16:50;;;;;;;;;;;;;;;18.44;28.90;101637.14;1797953;80;20154;-80
2021/04/17 11:19:30;;;;;;;;;;;;;;;18.60;27.72;101626.20;1798144;80;20631;-78
2021/04/17 11:22:10;;;;;;;;;;;;;;;18.55;27.89;101629.21;1797968;80;20151;-76
2021/04/17 11:24:43;;;;;;;;;;;;;;;18.36;28.08;101630.36;1789777;80;20131;-79
2021/04/17 11:27:11;;;;;;;;;;;;;;;18.33;28.15;101630.15;1797960;80;20855;-78
2021/04/17 11:29:39;;;;;;;;;;;;;;;18.44;28.34;101626.13;1797984;80;20155;-76
2021/04/17 11:32:06;;;;;;;;;;;;;;;18.62;28.29;101630.37;1797956;80;21189;-77
2021/04/17 11:34:38;;;;;;;;;;;;;;;18.84;27.26;101622.80;1798063;80;20261;-79
2021/04/17 11:37:07;;;;;;;;;;;;;;;19.12;27.38;101622.09;1798030;80;20131;-76
2021/04/17 11:39:35;;;;;;;;;;;;;;;19.59;27.62;101619.30;1797997;80;20269;-77
2021/04/17 11:42:02;;;;;;;;;;;;;;;19.94;25.66;101630.63;1797980;80;20134;-76
2021/04/17 11:44:31;;;;;;;;;;;;;;;20.39;25.38;101610.63;1798019;80;22178;-77
2021/04/17 11:46:59;;;;;;;;;;;;;;;20.55;25.74;101614.84;1797883;80;20155;-78
2021/04/17 11:49:27;;;;;;;;;;;;;;;20.49;24.01;101610.61;1797915;80;20139;-76
2021/04/17 11:51:54;;;;;;;;;;;;;;;19.76;24.87;101615.97;1797920;80;20155;-78
2021/04/17 11:54:23;;;;;;;;;;;;;;;19.19;25.48;101615.81;1797988;80;20218;-74
2021/04/17 11:56:51;;;;;;;;;;;;;;;18.49;25.75;101615.23;1798076;80;22548;-84
2021/04/17 11:59:18;;;;;;;;;;;;;;;17.80;26.44;101613.55;1798049;80;20190;-82
2021/04/17 12:01:46;;;;;;;;;;;;;;;17.13;27.25;101613.29;1798265;80;20130;-75
2021/04/17 12:04:17;;;;;;;;;;;;;;;16.62;28.06;101609.81;1798950;80;20111;-75
2021/04/17 12:06:49;;;;;;;;;;;;;;;16.23;28.55;101609.69;1798456;80;20155;-76
2021/04/17 12:09:14;;;;;;;;;;;;;;;15.91;29.13;101621.69;1797778;80;21671;-75
2021/04/17 12:11:46;;;;;;;;;;;;;;;15.77;29.26;101620.53;1797727;80;20233;-75
2021/04/17 12:14:14;;;;;;;;;;;;;;;15.69;29.91;101614.57;1788706;78;20247;-78
2021/04/17 12:16:41;;;;;;;;;;;;;;;15.80;30.09;101615.08;1785925;80;20242;-76
2021/04/17 12:19:10;;;;;;;;;;;;;;;15.99;30.57;101615.88;1786074;80;20147;-77
2021/04/17 12:21:38;;;;;;;;;;;;;;;16.28;30.35;101610.16;1755776;80;21720;-77
2021/04/17 12:24:08;;;;;;;;;;;;;;;16.58;30.21;101612.30;1785802;80;20227;-77
2021/04/17 12:26:38;;;;;;;;;;;;;;;16.78;29.44;101616.02;1785997;80;20517;-77
2021/04/17 12:29:07;;;;;;;;;;;;;;;17.04;29.08;101605.64;1785865;80;20984;-79
2021/04/17 12:31:35;;;;;;;;;;;;;;;17.35;28.72;101604.08;1785950;80;20564;-75
2021/04/17 12:34:03;;;;;;;;;;;;;;;17.93;28.39;101604.20;1785867;80;21248;-75
2021/04/17 12:36:31;;;;;;;;;;;;;;;18.56;28.74;101608.55;1785822;80;20166;-77
2021/04/17 12:38:59;;;;;;;;;;;;;;;18.80;26.82;101604.30;1785956;80;20111;-76
2021/04/17 12:41:26;;;;;;;;;;;;;;;18.66;26.69;101597.61;1786019;80;21018;-75
2021/04/17 12:43:54;;;;;;;;;;;;;;;18.52;26.41;101598.41;1786072;80;20219;-78
2021/04/17 12:46:22;;;;;;;;;;;;;;;18.52;26.42;101590.05;1785920;80;21641;-77
2021/04/17 12:48:51;;;;;;;;;;;;;;;18.55;26.02;101597.66;1785916;80;20151;-78
2021/04/17 12:51:18;;;;;;;;;;;;;;;18.69;26.97;101594.72;1785927;80;20151;-76
2021/04/17 12:53:46;;;;;;;;;;;;;;;19.03;26.40;101601.84;1786036;80;20964;-75
2021/04/17 12:56:14;;;;;;;;;;;;;;;19.66;25.53;101598.48;1785928;80;20236;-76
2021/04/17 12:58:42;;;;;;;;;;;;;;;20.47;24.47;101589.68;1785912;80;21185;-75